Time;durP1;ratioP1;P1;durP2;ratioP2;P2;SDS_P1;SDS_P2;PMS_P1;PMS_P2;Temp;Humidity;BMP_temperature;BMP_pressure;BME280_temperature;BME280_humidity;BME280_pressure;Samples;Min_cycle;Max_cycle;Signal;HPM_P1;HPM_P2
2024/03/07 00:01:03;;;;;;;18.83;13.77;;;;;;;5.19;100.00;100265.37;1457114;89;21471;-72
2024/03/07 00:03:29;;;;;;;18.97;13.00;;;;;;;5.21;100.00;100264.78;1428586;91;21407;-73
2024/03/07 00:05:55;;;;;;;18.03;12.90;;;;;;;5.18;100.00;100267.64;1398094;92;22216;-72
2024/03/07 00:08:21;;;;;;;18.33;12.77;;;;;;;5.22;100.00;100265.61;1413276;90;21525;-73
2024/03/07 00:10:47;;;;;;;19.10;13.40;;;;;;;5.22;100.00;100266.44;1452598;89;21410;-73
2024/03/07 00:13:13;;;;;;;21.80;14.67;;;;;;;5.22;100.00;100270.86;1449019;89;21494;-73
2024/03/07 00:15:41;;;;;;;19.43;13.53;;;;;;;5.22;100.00;100265.61;1427895;88;21538;-73
2024/03/07 00:18:07;;;;;;;20.87;14.20;;;;;;;5.17;100.00;100263.33;1430702;90;22064;-72
2024/03/07 00:20:33;;;;;;;21.27;14.40;;;;;;;5.15;100.00;100263.91;1442891;89;21352;-72
2024/03/07 00:22:59;;;;;;;18.70;13.73;;;;;;;5.16;100.00;100262.50;1412402;92;21334;-72
2024/03/07 00:25:26;;;;;;;18.57;14.77;;;;;;;5.16;100.00;100259.05;1445932;89;21383;-72
2024/03/07 00:27:53;;;;;;;25.93;17.50;;;;;;;5.16;100.00;100264.30;1448880;90;22211;-72
2024/03/07 00:30:20;;;;;;;19.97;14.77;;;;;;;5.15;100.00;100258.66;1419145;91;21392;-72
2024/03/07 00:32:47;;;;;;;19.50;13.03;;;;;;;5.14;100.00;100266.19;1445745;89;21404;-74
2024/03/07 00:35:13;;;;;;;20.87;13.53;;;;;;;5.13;100.00;100267.98;1456138;88;22195;-75
2024/03/07 00:37:39;;;;;;;21.17;14.20;;;;;;;5.10;100.00;100265.59;1458747;89;21455;-75
2024/03/07 00:40:07;;;;;;;23.03;14.77;;;;;;;5.10;100.00;100270.01;1452364;89;21412;-75
2024/03/07 00:42:33;;;;;;;17.33;13.10;;;;;;;5.06;100.00;100263.30;1428992;90;21449;-75
2024/03/07 00:45:00;;;;;;;18.03;12.33;;;;;;;5.07;100.00;100261.06;1411554;92;21447;-75
2024/03/07 00:47:26;;;;;;;20.33;14.93;;;;;;;4.99;100.00;100264.25;1427007;90;21363;-75
2024/03/07 00:49:54;;;;;;;18.90;13.30;;;;;;;4.97;100.00;100263.05;1436120;90;21398;-75
2024/03/07 00:52:20;;;;;;;16.87;12.67;;;;;;;4.94;100.00;100261.97;1450165;89;21494;-75
2024/03/07 00:54:46;;;;;;;16.73;11.93;;;;;;;4.91;100.00;100260.88;1448353;89;21404;-74
2024/03/07 00:57:12;;;;;;;17.70;12.23;;;;;;;4.93;100.00;100266.86;1437063;90;21596;-74
2024/03/07 00:59:38;;;;;;;20.40;13.60;;;;;;;4.86;100.00;100263.05;1441809;89;21412;-75
2024/03/07 01:02:04;;;;;;;19.97;11.93;;;;;;;4.81;100.00;100250.74;1444415;89;22299;-74
2024/03/07 01:04:31;;;;;;;16.20;11.23;;;;;;;4.81;100.00;100250.74;1451873;89;21366;-74
2024/03/07 01:06:58;;;;;;;15.57;11.27;;;;;;;4.82;100.00;100264.20;1456736;89;22270;-74
2024/03/07 01:09:25;;;;;;;15.20;10.67;;;;;;;4.77;100.00;100255.84;1460406;89;21363;-74
2024/03/07 01:11:51;;;;;;;12.40;9.50;;;;;;;4.81;100.00;100262.55;1419176;91;21363;-74
2024/03/07 01:14:17;;;;;;;14.03;10.40;;;;;;;4.74;100.00;100260.83;1387139;92;21438;-74
2024/03/07 01:16:43;;;;;;;13.60;10.30;;;;;;;4.75;100.00;100255.14;1393704;94;21492;-74
2024/03/07 01:19:09;;;;;;;13.50;9.83;;;;;;;4.75;100.00;100253.83;1450489;88;21519;-74
2024/03/07 01:21:36;;;;;;;11.40;9.23;;;;;;;4.67;100.00;100258.80;1445532;89;21338;-75
2024/03/07 01:24:02;;;;;;;11.67;9.17;;;;;;;4.60;100.00;100257.09;1457122;89;22035;-75
2024/03/07 01:26:29;;;;;;;12.20;9.73;;;;;;;4.62;100.00;100258.30;1458214;89;21466;-74
2024/03/07 01:28:58;;;;;;;11.07;8.50;;;;;;;4.51;100.00;100256.45;1444365;89;21302;-74
2024/03/07 01:31:24;;;;;;;11.37;8.60;;;;;;;4.51;100.00;100256.45;1455667;89;22231;-75
2024/03/07 01:33:51;;;;;;;13.40;9.80;;;;;;;4.60;100.00;100264.12;1448776;89;21465;-74
2024/03/07 01:36:20;;;;;;;9.33;7.63;;;;;;;4.57;100.00;100259.94;1456485;89;21633;-75
2024/03/07 01:38:46;;;;;;;11.43;9.70;;;;;;;4.52;100.00;100257.67;1424345;90;22233;-75
2024/03/07 01:41:14;;;;;;;13.20;9.00;;;;;;;4.46;100.00;100255.95;1395231;94;21346;-75
2024/03/07 01:43:42;;;;;;;10.60;8.70;;;;;;;4.46;100.00;100255.95;1434818;90;21525;-75
2024/03/07 01:46:10;;;;;;;10.30;8.10;;;;;;;4.39;100.00;100249.03;1441898;89;21347;-75
2024/03/07 01:48:40;;;;;;;11.67;8.90;;;;;;;4.39;100.00;100249.03;1440672;89;21332;-74
2024/03/07 01:51:08;;;;;;;10.55;8.33;;;;;;;4.43;100.00;100258.35;1456720;89;21285;-74
2024/03/07 01:53:35;;;;;;;12.50;8.53;;;;;;;4.41;100.00;100258.93;1458198;89;21470;-74
2024/03/07 01:56:03;;;;;;;14.30;8.83;;;;;;;4.42;100.00;100257.97;1451681;89;21395;-74
2024/03/07 01:58:33;;;;;;;11.87;7.77;;;;;;;4.43;100.00;100265.35;1431826;90;21375;-75
2024/03/07 02:01:00;;;;;;;9.50;7.70;;;;;;;4.34;100.00;100247.69;1452622;89;21577;-75
2024/03/07 02:03:26;;;;;;;11.80;8.27;;;;;;;4.34;100.00;100247.69;1457945;89;21434;-75
2024/03/07 02:05:52;;;;;;;10.10;8.30;;;;;;;4.31;100.00;100260.53;1440877;89;22126;-75
2024/03/07 02:08:19;;;;;;;9.10;7.77;;;;;;;4.36;100.00;100261.52;1445243;89;22141;-75
2024/03/07 02:10:46;;;;;;;10.77;8.30;;;;;;;4.30;100.00;100262.80;1443489;89;21353;-75
2024/03/07 02:13:12;;;;;;;10.10;8.13;;;;;;;4.30;100.00;100262.80;1449941;89;22137;-74
2024/03/07 02:15:38;;;;;;;9.83;8.03;;;;;;;4.33;100.00;100256.03;1430271;90;22972;-74
2024/03/07 02:18:05;;;;;;;8.83;7.07;;;;;;;4.32;100.00;100253.53;1456283;89;21279;-74
2024/03/07 02:20:31;;;;;;;10.00;7.50;;;;;;;4.31;100.00;100264.47;1455135;89;21486;-75
2024/03/07 02:22:57;;;;;;;9.70;7.27;;;;;;;4.34;100.00;100257.69;1452887;88;23062;-75
2024/03/07 02:25:23;;;;;;;9.07;6.93;;;;;;;4.32;100.00;100262.23;1448038;89;21979;-75
2024/03/07 02:27:49;;;;;;;13.03;8.87;;;;;;;4.24;100.00;100261.94;1450636;89;23189;-75
2024/03/07 02:30:18;;;;;;;9.03;6.20;;;;;;;4.23;100.00;100257.19;1451204;89;21337;-75
2024/03/07 02:32:48;;;;;;;10.47;7.60;;;;;;;4.25;100.00;100257.05;1448943;89;21515;-75
2024/03/07 02:35:12;;;;;;;6.47;5.30;;;;;;;4.24;100.00;100254.08;1403444;92;21540;-75
2024/03/07 02:37:38;;;;;;;8.83;6.83;;;;;;;4.28;100.00;100254.20;1418585;92;22170;-75
2024/03/07 02:40:07;;;;;;;7.17;6.07;;;;;;;4.21;100.00;100252.52;1409002;91;21358;-75
2024/03/07 02:42:33;;;;;;;9.27;5.63;;;;;;;4.21;100.00;100252.52;1426580;91;22339;-75
2024/03/07 02:44:59;;;;;;;6.80;5.73;;;;;;;4.17;100.00;100244.53;1405760;92;21431;-75
2024/03/07 02:47:25;;;;;;;7.90;6.33;;;;;;;4.17;100.00;100244.53;1428458;92;21480;-75
2024/03/07 02:49:51;;;;;;;6.27;5.40;;;;;;;4.17;100.00;100251.08;1421461;90;22370;-75
2024/03/07 02:52:18;;;;;;;6.47;5.70;;;;;;;4.20;100.00;100252.62;1448462;90;21326;-76
2024/03/07 02:54:44;;;;;;;8.07;6.00;;;;;;;4.21;100.00;100247.76;1449392;90;21368;-75
2024/03/07 02:57:11;;;;;;;5.87;5.13;;;;;;;4.25;100.00;100260.98;1450748;90;22485;-76
2024/03/07 02:59:37;;;;;;;7.83;6.23;;;;;;;4.22;100.00;100253.35;1436424;89;21960;-75
2024/03/07 03:02:03;;;;;;;8.27;6.37;;;;;;;4.24;100.00;100253.45;1453506;88;22836;-75
2024/03/07 03:04:29;;;;;;;6.87;5.93;;;;;;;4.15;100.00;100253.45;1455408;89;21279;-75
2024/03/07 03:06:56;;;;;;;5.80;4.33;;;;;;;4.22;100.00;100253.35;1446344;89;21324;-75
2024/03/07 03:09:22;;;;;;;6.50;5.03;;;;;;;4.16;100.00;100259.03;1448836;89;21309;-75
2024/03/07 03:11:48;;;;;;;5.93;5.33;;;;;;;4.12;100.00;100257.12;1451756;89;21481;-75
2024/03/07 03:14:14;;;;;;;6.73;4.90;;;;;;;4.17;100.00;100259.39;1450371;89;21257;-74
2024/03/07 03:16:44;;;;;;;5.20;4.70;;;;;;;4.17;100.00;100255.45;1449337;89;21307;-74
2024/03/07 03:19:10;;;;;;;5.67;4.70;;;;;;;4.15;100.00;100252.14;1461807;89;22151;-75
2024/03/07 03:21:37;;;;;;;5.70;4.43;;;;;;;4.17;100.00;100254.15;1451315;89;23066;-75
2024/03/07 03:24:04;;;;;;;5.30;4.57;;;;;;;4.12;100.00;100259.73;1455731;89;22078;-75
2024/03/07 03:26:31;;;;;;;7.07;5.67;;;;;;;4.17;100.00;100256.32;1457457;89;22099;-75
2024/03/07 03:28:58;;;;;;;4.73;4.17;;;;;;;4.15;100.00;100258.69;1456571;89;22190;-74
2024/03/07 03:31:25;;;;;;;6.13;4.77;;;;;;;4.15;100.00;100258.69;1454147;89;22004;-74
2024/03/07 03:33:52;;;;;;;7.67;4.77;;;;;;;4.16;100.00;100255.11;1460481;89;22605;-74
2024/03/07 03:36:18;;;;;;;6.23;5.30;;;;;;;4.15;100.00;100259.52;1453445;89;23012;-74
2024/03/07 03:38:45;;;;;;;5.77;4.70;;;;;;;4.15;100.00;100259.99;1423335;91;22048;-74
2024/03/07 03:41:16;;;;;;;5.97;5.27;;;;;;;4.14;100.00;100254.37;1410372;92;22298;-74
2024/03/07 03:43:42;;;;;;;;;;;;;;;4.14;100.00;100254.37;1427266;91;21370;-74
2024/03/07 03:46:12;;;;;;;5.20;4.47;;;;;;;4.11;100.00;100255.42;1424615;91;20295;-74
2024/03/07 03:48:42;;;;;;;5.10;4.50;;;;;;;4.18;100.00;100259.77;1447694;89;23068;-75
2024/03/07 03:51:09;;;;;;;5.00;4.40;;;;;;;4.16;100.00;100255.94;1456978;89;22094;-74
2024/03/07 03:53:40;;;;;;;4.67;4.10;;;;;;;4.19;100.00;100258.81;1447388;89;21316;-74
2024/03/07 03:56:08;;;;;;;4.80;4.22;;;;;;;4.15;100.00;100261.30;1458885;89;22153;-74
2024/03/07 03:58:34;;;;;;;6.33;4.67;;;;;;;4.21;100.00;100258.23;1438667;90;21626;-74
2024/03/07 04:01:00;;;;;;;5.40;4.30;;;;;;;4.20;100.00;100256.55;1461564;90;23019;-74
2024/03/07 04:03:27;;;;;;;5.90;4.60;;;;;;;4.19;100.00;100260.95;1424708;91;22132;-74
2024/03/07 04:05:55;;;;;;;5.17;3.90;;;;;;;4.23;100.00;100256.32;1438054;91;21331;-74
2024/03/07 04:08:21;;;;;;;5.97;4.30;;;;;;;4.20;100.00;100252.62;1439563;90;22167;-74
2024/03/07 04:10:47;;;;;;;4.13;3.60;;;;;;;4.27;100.00;100255.17;1430137;91;22959;-74
2024/03/07 04:13:13;;;;;;;5.73;3.87;;;;;;;4.27;100.00;100257.79;1430981;92;22177;-74
2024/03/07 04:15:39;;;;;;;6.20;3.90;;;;;;;4.26;100.00;100260.06;1428536;91;21437;-74
2024/03/07 04:18:06;;;;;;;4.33;3.83;;;;;;;4.27;100.00;100253.86;1427904;92;23040;-74
2024/03/07 04:20:33;;;;;;;5.93;4.17;;;;;;;4.31;100.00;100256.60;1420552;92;22361;-76
2024/03/07 04:22:59;;;;;;;4.27;3.57;;;;;;;4.28;100.00;100258.97;1454155;89;22034;-75
2024/03/07 04:25:25;;;;;;;6.90;3.20;;;;;;;4.26;100.00;100260.06;1444890;89;22329;-75
2024/03/07 04:27:51;;;;;;;4.03;3.50;;;;;;;4.30;100.00;100261.02;1460446;88;21309;-75
2024/03/07 04:30:17;;;;;;;4.10;3.40;;;;;;;4.34;100.00;100256.38;1447671;89;22664;-75
2024/03/07 04:32:43;;;;;;;4.80;4.13;;;;;;;4.34;100.00;100260.31;1449772;89;21981;-75
2024/03/07 04:35:10;;;;;;;4.50;4.03;;;;;;;4.32;100.00;100260.09;1454333;89;23022;-75
2024/03/07 04:37:40;;;;;;;4.53;3.87;;;;;;;4.32;100.00;100260.92;1453588;89;23311;-75
2024/03/07 04:40:15;;;;;;;4.08;3.10;;;;;;;4.29;100.00;100261.14;1455214;89;22544;-75
2024/03/07 04:42:52;;;;;;;5.80;3.63;;;;;;;4.29;100.00;100262.07;1450434;89;21368;-75
2024/03/07 04:45:16;;;;;;;4.03;3.20;;;;;;;4.28;100.00;100262.07;1451210;89;22173;-75
2024/03/07 04:47:47;;;;;;;5.80;4.60;;;;;;;4.27;100.00;100263.03;1464580;89;22040;-75
2024/03/07 04:50:17;;;;;;;5.58;3.83;;;;;;;4.25;100.00;100265.74;1451169;89;22210;-75
2024/03/07 04:52:42;;;;;;;4.87;3.20;;;;;;;4.24;100.00;100264.56;1450474;89;21413;-75
2024/03/07 04:55:10;;;;;;;4.70;4.17;;;;;;;4.22;100.00;100266.45;1449356;89;22094;-75
2024/03/07 04:57:39;;;;;;;5.40;3.77;;;;;;;4.26;100.00;100269.23;1445271;89;22153;-75
2024/03/07 05:00:18;;;;;;;6.87;3.57;;;;;;;4.28;100.00;100273.86;1459389;89;22085;-75
2024/03/07 05:02:46;;;;;;;4.30;3.53;;;;;;;4.24;100.00;100269.33;1448398;89;22111;-75
2024/03/07 05:05:12;;;;;;;3.70;3.10;;;;;;;4.29;100.00;100266.38;1448877;89;22168;-75
2024/03/07 05:07:39;;;;;;;5.17;3.20;;;;;;;4.25;100.00;100267.05;1464291;89;22027;-77
2024/03/07 05:10:08;;;;;;;5.53;3.77;;;;;;;4.25;100.00;100275.39;1448248;90;22112;-76
2024/03/07 05:12:34;;;;;;;4.60;3.60;;;;;;;4.28;100.00;100269.93;1446738;89;22073;-76
2024/03/07 05:15:00;;;;;;;4.43;3.77;;;;;;;4.31;100.00;100269.70;1453315;89;22114;-76
2024/03/07 05:17:28;;;;;;;4.13;3.40;;;;;;;4.31;100.00;100276.26;1463108;89;22077;-76
2024/03/07 05:19:54;;;;;;;4.47;3.43;;;;;;;4.27;100.00;100265.65;1453074;89;22110;-76
2024/03/07 05:22:24;;;;;;;4.23;3.40;;;;;;;4.27;100.00;100265.65;1474031;89;22217;-76
2024/03/07 05:24:50;;;;;;;3.40;2.80;;;;;;;4.38;100.00;100269.48;1449773;89;21442;-75
2024/03/07 05:27:16;;;;;;;4.93;4.00;;;;;;;4.44;100.00;100278.36;1443575;89;21420;-76
2024/03/07 05:29:42;;;;;;;5.77;3.17;;;;;;;4.44;100.00;100278.36;1447796;89;21398;-76
2024/03/07 05:32:27;;;;;;;4.07;3.13;;;;;;;4.55;100.00;100282.83;1451150;89;22634;-76
2024/03/07 05:34:54;;;;;;;5.23;3.60;;;;;;;4.58;100.00;100285.70;1462924;89;21382;-76
2024/03/07 05:37:23;;;;;;;6.10;3.47;;;;;;;4.58;100.00;100285.70;1449945;89;21302;-76
2024/03/07 05:39:53;;;;;;;3.80;3.40;;;;;;;4.58;100.00;100289.62;1463033;89;22147;-76
2024/03/07 05:42:20;;;;;;;4.10;3.53;;;;;;;4.59;100.00;100297.37;1455313;89;23660;-76
2024/03/07 05:44:46;;;;;;;5.57;4.23;;;;;;;4.67;100.00;100294.19;1451593;89;21241;-76
2024/03/07 05:47:16;;;;;;;6.53;4.03;;;;;;;4.67;100.00;100294.19;1452675;89;21314;-75
2024/03/07 05:49:43;;;;;;;4.75;3.50;;;;;;;4.70;100.00;100294.80;1440203;90;21323;-76
2024/03/07 05:52:10;;;;;;;5.23;4.73;;;;;;;4.77;100.00;100289.09;1466487;89;21331;-76
2024/03/07 05:54:36;;;;;;;5.43;4.20;;;;;;;4.77;100.00;100289.09;1446676;88;21227;-76
2024/03/07 05:57:03;;;;;;;5.73;4.23;;;;;;;4.86;100.00;100305.00;1452885;89;21529;-75
2024/03/07 05:59:31;;;;;;;10.00;6.30;;;;;;;4.94;100.00;100307.03;1447809;89;21360;-76
2024/03/07 06:01:57;;;;;;;12.57;7.20;;;;;;;5.02;100.00;100307.78;1464496;89;22293;-76
2024/03/07 06:04:23;;;;;;;7.13;5.67;;;;;;;5.09;100.00;100303.73;1449718;89;21286;-76
2024/03/07 06:06:50;;;;;;;8.13;6.20;;;;;;;5.16;100.00;100311.52;1432276;90;21486;-76
2024/03/07 06:09:21;;;;;;;8.00;6.10;;;;;;;5.24;100.00;100310.95;1450093;89;21405;-76
2024/03/07 06:11:44;;;;;;;7.30;5.63;;;;;;;5.29;100.00;100315.34;1410325;91;23339;-76
2024/03/07 06:14:13;;;;;;;9.37;7.40;;;;;;;5.33;100.00;100316.80;1453398;88;21346;-76
2024/03/07 06:16:40;;;;;;;12.93;7.77;;;;;;;5.36;100.00;100317.88;1453644;89;21308;-76
2024/03/07 06:19:08;;;;;;;10.93;7.97;;;;;;;5.36;100.00;100319.19;1453982;89;21287;-76
2024/03/07 06:21:39;;;;;;;12.37;8.97;;;;;;;5.36;100.00;100318.71;1451561;89;21326;-76
2024/03/07 06:24:07;;;;;;;11.50;7.95;;;;;;;5.39;100.00;100326.34;1411444;92;21313;-76
2024/03/07 06:26:37;;;;;;;11.30;7.47;;;;;;;5.39;100.00;100330.29;1434329;89;21345;-76
2024/03/07 06:29:13;;;;;;;23.87;12.70;;;;;;;5.38;100.00;100332.56;1462475;89;22252;-75
2024/03/07 06:31:46;;;;;;;21.90;12.77;;;;;;;5.40;100.00;100331.12;1452966;89;21485;-75
2024/03/07 06:34:09;;;;;;;13.67;10.43;;;;;;;5.42;100.00;100337.92;1452851;89;21352;-75
2024/03/07 06:36:35;;;;;;;13.77;9.73;;;;;;;5.45;100.00;100338.66;1451126;89;22511;-75
2024/03/07 06:39:06;;;;;;;12.67;10.13;;;;;;;5.46;100.00;100339.00;1458520;89;21344;-75
2024/03/07 06:41:35;;;;;;;21.90;12.10;;;;;;;5.47;100.00;100341.98;1397205;92;21389;-76
2024/03/07 06:44:02;;;;;;;14.57;9.47;;;;;;;5.48;100.00;100348.44;1404457;90;21292;-76
2024/03/07 06:46:30;;;;;;;12.10;10.00;;;;;;;5.47;100.00;100347.22;1419783;92;21392;-75
2024/03/07 06:48:57;;;;;;;17.07;10.70;;;;;;;5.47;100.00;100349.41;1445949;89;22122;-76
2024/03/07 06:51:24;;;;;;;9.83;7.50;;;;;;;5.48;100.00;100355.48;1444814;89;21362;-76
2024/03/07 06:53:51;;;;;;;10.80;8.87;;;;;;;5.48;100.00;100359.42;1446956;89;21405;-75
2024/03/07 06:56:17;;;;;;;11.10;7.37;;;;;;;5.49;100.00;100363.70;1443784;89;21487;-76
2024/03/07 06:58:48;;;;;;;11.57;8.50;;;;;;;5.49;100.00;100361.08;1455601;89;21323;-75
2024/03/07 07:01:18;;;;;;;14.28;9.85;;;;;;;5.51;100.00;100363.13;1451476;89;21392;-76
2024/03/07 07:03:44;;;;;;;26.93;20.08;;;;;;;5.52;100.00;100370.03;1449385;90;21503;-76
2024/03/07 07:06:11;;;;;;;26.90;20.27;;;;;;;5.53;100.00;100369.09;1449903;89;21346;-75
2024/03/07 07:08:37;;;;;;;25.37;17.90;;;;;;;5.53;100.00;100361.23;1453416;90;21495;-76
2024/03/07 07:11:04;;;;;;;45.43;32.60;;;;;;;5.56;100.00;100368.38;1447030;90;21316;-76
2024/03/07 07:13:31;;;;;;;41.83;29.87;;;;;;;5.59;100.00;100375.19;1449962;89;21413;-76
2024/03/07 07:15:58;;;;;;;24.73;17.13;;;;;;;5.61;100.00;100382.45;1446202;90;21398;-76
2024/03/07 07:18:24;;;;;;;27.30;20.90;;;;;;;5.60;100.00;100384.73;1454729;89;21434;-76
2024/03/07 07:20:53;;;;;;;25.93;18.10;;;;;;;5.61;100.00;100387.70;1449371;90;21399;-76
2024/03/07 07:23:20;;;;;;;13.97;9.53;;;;;;;5.63;100.00;100385.80;1449172;90;21465;-76
2024/03/07 07:25:46;;;;;;;12.03;9.40;;;;;;;5.65;100.00;100399.67;1456724;90;21279;-76
2024/03/07 07:28:13;;;;;;;13.03;10.27;;;;;;;5.68;100.00;100395.97;1443778;90;22024;-76
2024/03/07 07:30:39;;;;;;;13.43;10.37;;;;;;;5.71;100.00;100403.62;1439591;90;21978;-76
2024/03/07 07:33:06;;;;;;;13.77;11.23;;;;;;;5.77;100.00;100402.66;1448057;89;21332;-76
2024/03/07 07:35:34;;;;;;;24.33;18.10;;;;;;;5.80;100.00;100408.99;1440805;89;21361;-76
2024/03/07 07:38:00;;;;;;;20.73;15.73;;;;;;;5.79;100.00;100407.33;1451770;89;21523;-76
2024/03/07 07:40:27;;;;;;;19.17;13.00;;;;;;;5.80;100.00;100410.30;1450977;90;22154;-76
2024/03/07 07:42:54;;;;;;;17.03;10.83;;;;;;;5.78;100.00;100409.61;1448302;89;21442;-76
2024/03/07 07:45:22;;;;;;;17.67;12.50;;;;;;;5.81;100.00;100417.70;1447513;90;22476;-76
2024/03/07 07:47:51;;;;;;;13.93;11.30;;;;;;;5.81;100.00;100413.31;1450133;89;21435;-76
2024/03/07 07:50:20;;;;;;;19.47;14.83;;;;;;;5.80;100.00;100418.19;1435112;90;21552;-76
2024/03/07 07:52:58;;;;;;;13.27;10.90;;;;;;;5.79;100.00;100412.58;1451579;89;21368;-76
2024/03/07 07:55:29;;;;;;;28.80;22.30;;;;;;;5.79;100.00;100416.52;1456458;90;21546;-76
2024/03/07 07:58:04;;;;;;;36.30;23.60;;;;;;;5.81;100.00;100415.94;1444254;90;22410;-76
2024/03/07 08:00:30;;;;;;;41.77;27.53;;;;;;;5.85;100.00;100418.67;1445674;90;21397;-76
2024/03/07 08:03:01;;;;;;;52.30;33.60;;;;;;;5.88;100.00;100427.63;1443043;89;21383;-74
2024/03/07 08:05:31;;;;;;;16.20;11.90;;;;;;;5.89;100.00;100417.47;1440883;90;21487;-76
2024/03/07 08:08:05;;;;;;;21.57;14.73;;;;;;;5.94;100.00;100415.02;1448682;90;21471;-77
2024/03/07 08:10:35;;;;;;;25.60;16.90;;;;;;;6.00;100.00;100418.48;1449292;89;21605;-77
2024/03/07 08:13:03;;;;;;;42.97;25.70;;;;;;;6.04;100.00;100415.97;1434731;90;21375;-77
2024/03/07 08:19:30;;;;;;;64.00;39.13;;;;;;;6.17;100.00;100419.33;1448380;90;21538;-77
2024/03/07 08:21:56;;;;;;;60.00;37.93;;;;;;;6.22;100.00;100422.44;1447845;89;21340;-78
2024/03/07 08:24:22;;;;;;;23.60;14.87;;;;;;;6.21;100.00;100424.69;1456911;89;21347;-78
2024/03/07 08:26:48;;;;;;;83.37;50.23;;;;;;;6.26;100.00;100426.48;1448358;90;21405;-77
2024/03/07 08:29:14;;;;;;;157.10;77.90;;;;;;;6.28;100.00;100427.21;1445339;89;21398;-78
2024/03/07 08:31:41;;;;;;;81.80;40.57;;;;;;;6.32;100.00;100429.95;1449991;89;21479;-77
2024/03/07 08:34:07;;;;;;;215.33;100.07;;;;;;;6.36;100.00;100429.70;1448350;89;21420;-77
2024/03/07 08:36:33;;;;;;;136.27;60.07;;;;;;;6.38;100.00;100431.74;1450191;90;21553;-77
2024/03/07 08:39:00;;;;;;;101.97;50.00;;;;;;;6.42;100.00;100438.45;1446351;90;22393;-78
2024/03/07 08:41:26;;;;;;;69.67;39.40;;;;;;;6.45;100.00;100435.09;1446211;90;21406;-78
2024/03/07 08:43:52;;;;;;;49.97;32.40;;;;;;;6.49;100.00;100440.45;1446218;90;21464;-79
2024/03/07 08:46:18;;;;;;;31.53;20.70;;;;;;;6.49;100.00;100442.25;1448008;89;21398;-79
2024/03/07 08:48:44;;;;;;;22.53;15.67;;;;;;;6.48;100.00;100437.48;1459672;89;21538;-77
2024/03/07 08:51:11;;;;;;;17.20;12.23;;;;;;;6.46;100.00;100445.12;1447686;89;21581;-77
2024/03/07 08:53:37;;;;;;;23.20;14.17;;;;;;;6.46;100.00;100445.95;1455593;89;21435;-78
2024/03/07 08:56:03;;;;;;;15.37;12.07;;;;;;;6.48;100.00;100449.80;1443485;90;21413;-77
2024/03/07 08:58:29;;;;;;;12.10;8.93;;;;;;;6.48;100.00;100448.48;1451907;89;21353;-77
2024/03/07 09:00:55;;;;;;;28.23;20.30;;;;;;;6.46;100.00;100450.38;1449437;90;21397;-77
2024/03/07 09:03:24;;;;;;;17.33;12.77;;;;;;;6.46;100.00;100449.07;1453007;89;21486;-77
2024/03/07 09:05:52;;;;;;;16.00;11.73;;;;;;;6.44;100.00;100445.72;1442894;90;21457;-77
2024/03/07 09:08:18;;;;;;;19.50;14.67;;;;;;;6.46;100.00;100450.38;1449548;90;21361;-77
2024/03/07 09:10:44;;;;;;;19.73;15.00;;;;;;;6.49;100.00;100448.83;1445896;90;21420;-77
2024/03/07 09:13:10;;;;;;;14.30;10.30;;;;;;;6.50;100.00;100453.12;1450335;90;21383;-77
2024/03/07 09:15:37;;;;;;;9.80;7.83;;;;;;;6.53;100.00;100456.81;1447599;89;21516;-78
2024/03/07 09:18:04;;;;;;;14.73;8.83;;;;;;;6.50;100.00;100452.66;1432976;90;21501;-78
2024/03/07 09:20:31;;;;;;;8.57;6.73;;;;;;;6.56;100.00;100456.61;1445194;90;21375;-77
2024/03/07 09:22:58;;;;;;;8.23;6.63;;;;;;;6.61;100.00;100457.05;1448675;89;21324;-77
2024/03/07 09:25:24;;;;;;;10.43;7.73;;;;;;;6.64;100.00;100456.81;1453084;89;21316;-78
2024/03/07 09:27:50;;;;;;;19.90;14.63;;;;;;;6.68;100.00;100457.42;1445480;89;22145;-77
2024/03/07 09:30:21;;;;;;;11.07;8.67;;;;;;;6.71;100.00;100463.27;1432993;90;21362;-79
2024/03/07 09:32:45;;;;;;;24.90;15.27;;;;;;;6.75;100.00;100467.31;1410966;93;21620;-79
2024/03/07 09:35:11;;;;;;;21.43;12.53;;;;;;;6.81;100.00;100467.80;1414119;92;21332;-78
2024/03/07 09:37:41;;;;;;;13.73;10.00;;;;;;;6.81;100.00;100471.25;1409882;93;21391;-79
2024/03/07 09:40:11;;;;;;;12.87;9.20;;;;;;;6.85;100.00;100475.78;1406942;93;21303;-77
2024/03/07 09:42:47;;;;;;;12.88;9.33;;;;;;;6.82;100.00;100475.58;1407472;93;21406;-78
2024/03/07 09:45:17;;;;;;;13.07;9.20;;;;;;;6.85;100.00;100481.05;1407376;92;21473;-78
2024/03/07 09:47:48;;;;;;;16.02;11.73;;;;;;;6.87;100.00;100481.77;1412020;93;21513;-78
2024/03/07 09:50:21;;;;;;;13.70;7.80;;;;;;;6.88;100.00;100486.09;1414277;93;21450;-78
2024/03/07 09:52:49;;;;;;;21.33;14.80;;;;;;;6.87;100.00;100487.03;1408164;93;21528;-79
2024/03/07 09:55:18;;;;;;;81.27;43.97;;;;;;;6.85;100.00;100496.83;1444913;90;21427;-78
2024/03/07 09:57:50;;;;;;;18.30;11.87;;;;;;;6.83;100.00;100493.51;1440920;90;21435;-78
2024/03/07 10:00:25;;;;;;;13.37;9.33;;;;;;;6.80;100.00;100493.27;1458371;89;22484;-77
2024/03/07 10:03:13;;;;;;;10.93;7.93;;;;;;;6.81;100.00;100499.36;1453249;90;21376;-79
2024/03/07 10:05:40;;;;;;;11.33;7.80;;;;;;;6.81;100.00;100494.10;1451466;89;21604;-78
2024/03/07 10:08:07;;;;;;;8.00;6.70;;;;;;;6.82;100.00;100493.12;1446961;90;22301;-78
2024/03/07 10:10:33;;;;;;;8.10;7.07;;;;;;;6.83;100.00;100494.83;1444905;89;21369;-78
2024/03/07 10:13:00;;;;;;;10.70;8.00;;;;;;;6.82;100.00;100503.20;1440117;89;21553;-78
2024/03/07 10:15:34;;;;;;;10.07;7.63;;;;;;;6.82;100.00;100501.02;1448946;89;21397;-77
2024/03/07 10:18:00;;;;;;;9.90;7.90;;;;;;;6.86;100.00;100497.21;1449495;90;21547;-78
2024/03/07 10:20:27;;;;;;;11.17;7.80;;;;;;;6.88;100.00;100503.20;1452855;90;21473;-79
2024/03/07 10:22:54;;;;;;;11.33;7.00;;;;;;;6.91;100.00;100495.89;1445027;89;21528;-78
2024/03/07 10:25:27;;;;;;;9.17;7.40;;;;;;;6.94;100.00;100495.64;1449152;90;21427;-77
2024/03/07 10:27:54;;;;;;;9.67;7.13;;;;;;;7.03;100.00;100499.33;1446012;89;22836;-77
2024/03/07 10:30:21;;;;;;;8.23;6.57;;;;;;;7.07;100.00;100502.06;1447452;90;22424;-80
2024/03/07 10:32:51;;;;;;;8.30;7.33;;;;;;;7.11;100.00;100499.55;1446257;90;21339;-80
2024/03/07 10:35:24;;;;;;;12.87;7.73;;;;;;;7.17;100.00;100504.32;1451809;90;22358;-79
2024/03/07 10:37:55;;;;;;;14.87;7.13;;;;;;;7.20;100.00;100506.70;1455502;89;21567;-79
2024/03/07 10:40:22;;;;;;;10.85;7.30;;;;;;;7.28;100.00;100507.86;1444207;90;21523;-79
2024/03/07 10:42:52;;;;;;;8.23;6.37;;;;;;;7.34;100.00;100504.77;1447266;90;21411;-79
2024/03/07 10:45:26;;;;;;;9.57;6.60;;;;;;;7.40;100.00;100507.72;1443789;89;21660;-79
2024/03/07 10:47:57;;;;;;;9.33;7.10;;;;;;;7.49;100.00;100504.81;1447110;90;21493;-79
2024/03/07 10:51:09;;;;;;;8.47;7.33;;;;;;;7.58;100.00;100509.32;1436903;90;21464;-78
2024/03/07 10:53:57;;;;;;;15.10;8.23;;;;;;;7.67;100.00;100507.72;1440071;89;21413;-79
2024/03/07 10:56:51;;;;;;;13.27;9.17;;;;;;;7.63;100.00;100510.27;1409037;92;21590;-79
2024/03/07 10:59:20;;;;;;;14.13;9.73;;;;;;;7.67;100.00;100516.46;1410579;93;21594;-79
2024/03/07 11:01:51;;;;;;;16.03;10.00;;;;;;;7.72;100.00;100516.58;1404807;93;22390;-79
2024/03/07 11:04:19;;;;;;;12.80;10.30;;;;;;;7.73;100.00;100515.61;1452931;90;21732;-79
2024/03/07 11:06:45;;;;;;;16.87;11.03;;;;;;;7.74;100.00;100517.27;1449910;90;21642;-78
2024/03/07 11:09:13;;;;;;;13.03;9.70;;;;;;;7.74;100.00;100519.90;1440384;90;21680;-79
2024/03/07 11:11:40;;;;;;;11.37;8.60;;;;;;;7.73;100.00;100519.07;1446335;90;21509;-76
2024/03/07 11:14:10;;;;;;;14.23;10.13;;;;;;;7.75;100.00;100515.84;1442817;90;22373;-75
2024/03/07 11:16:40;;;;;;;14.23;10.20;;;;;;;7.78;100.00;100517.38;1445176;90;21516;-76
2024/03/07 11:19:31;;;;;;;13.33;10.60;;;;;;;7.80;100.00;100518.10;1450357;89;21353;-76
2024/03/07 11:21:59;;;;;;;12.00;8.90;;;;;;;7.85;100.00;100519.84;1448939;90;22240;-79
2024/03/07 11:24:36;;;;;;;7.87;6.27;;;;;;;7.86;100.00;100524.17;1442429;90;21412;-79